sensor_id;sensor_type;location;lat;lon;timestamp;P1;durP1;ratioP1;P2;durP2;ratioP2
75943;SDS011;64627;46.076;18.238;2022-11-20T00:03:31;14.38;;;7.10;;
75943;SDS011;64627;46.076;18.238;2022-11-20T00:06:21;14.20;;;7.15;;
75943;SDS011;64627;46.076;18.238;2022-11-20T00:09:15;10.98;;;5.65;;
75943;SDS011;64627;46.076;18.238;2022-11-20T00:12:03;15.75;;;7.57;;
75943;SDS011;64627;46.076;18.238;2022-11-20T03:38:06;7.45;;;3.45;;
75943;SDS011;64627;46.076;18.238;2022-11-20T03:41:02;6.37;;;3.53;;
75943;SDS011;64627;46.076;18.238;2022-11-20T03:44:02;7.47;;;4.20;;
75943;SDS011;64627;46.076;18.238;2022-11-20T03:46:51;8.48;;;4.45;;
75943;SDS011;64627;46.076;18.238;2022-11-20T03:52:28;5.95;;;3.22;;
75943;SDS011;64627;46.076;18.238;2022-11-20T03:55:14;7.75;;;3.75;;
75943;SDS011;64627;46.076;18.238;2022-11-20T06:07:46;13.82;;;6.30;;
75943;SDS011;64627;46.076;18.238;2022-11-20T06:10:43;14.87;;;7.45;;
75943;SDS011;64627;46.076;18.238;2022-11-20T06:28:14;13.05;;;6.62;;
75943;SDS011;64627;46.076;18.238;2022-11-20T06:31:15;13.88;;;6.55;;
75943;SDS011;64627;46.076;18.238;2022-11-20T06:34:09;21.83;;;9.30;;
75943;SDS011;64627;46.076;18.238;2022-11-20T06:37:11;17.73;;;7.53;;
75943;SDS011;64627;46.076;18.238;2022-11-20T06:40:01;11.52;;;5.32;;
75943;SDS011;64627;46.076;18.238;2022-11-20T06:42:45;9.93;;;5.12;;
75943;SDS011;64627;46.076;18.238;2022-11-20T06:45:36;10.93;;;5.00;;
75943;SDS011;64627;46.076;18.238;2022-11-20T06:48:33;9.50;;;5.05;;
75943;SDS011;64627;46.076;18.238;2022-11-20T06:51:24;11.57;;;5.50;;
75943;SDS011;64627;46.076;18.238;2022-11-20T06:54:08;12.37;;;5.90;;
75943;SDS011;64627;46.076;18.238;2022-11-20T06:56:59;14.20;;;6.20;;
75943;SDS011;64627;46.076;18.238;2022-11-20T06:59:50;12.30;;;5.80;;
75943;SDS011;64627;46.076;18.238;2022-11-20T07:02:41;12.37;;;6.28;;
75943;SDS011;64627;46.076;18.238;2022-11-20T07:05:32;13.35;;;6.03;;
75943;SDS011;64627;46.076;18.238;2022-11-20T07:08:30;13.32;;;6.22;;
75943;SDS011;64627;46.076;18.238;2022-11-20T07:11:21;13.75;;;6.10;;
75943;SDS011;64627;46.076;18.238;2022-11-20T07:14:19;13.02;;;6.80;;
75943;SDS011;64627;46.076;18.238;2022-11-20T07:17:03;12.30;;;6.07;;
75943;SDS011;64627;46.076;18.238;2022-11-20T07:20:00;14.25;;;6.28;;
75943;SDS011;64627;46.076;18.238;2022-11-20T07:22:44;13.00;;;6.37;;
75943;SDS011;64627;46.076;18.238;2022-11-20T07:25:42;11.98;;;6.18;;
75943;SDS011;64627;46.076;18.238;2022-11-20T07:28:32;15.20;;;6.25;;
75943;SDS011;64627;46.076;18.238;2022-11-20T07:31:30;12.37;;;6.03;;
75943;SDS011;64627;46.076;18.238;2022-11-20T07:34:20;15.55;;;6.57;;
75943;SDS011;64627;46.076;18.238;2022-11-20T07:37:11;12.35;;;5.70;;
75943;SDS011;64627;46.076;18.238;2022-11-20T07:40:03;12.50;;;5.45;;
75943;SDS011;64627;46.076;18.238;2022-11-20T07:42:54;15.10;;;6.57;;
75943;SDS011;64627;46.076;18.238;2022-11-20T07:45:45;18.33;;;7.62;;
75943;SDS011;64627;46.076;18.238;2022-11-20T07:48:35;23.92;;;9.63;;
75943;SDS011;64627;46.076;18.238;2022-11-20T07:51:19;21.40;;;9.95;;
75943;SDS011;64627;46.076;18.238;2022-11-20T07:54:04;22.70;;;9.55;;
75943;SDS011;64627;46.076;18.238;2022-11-20T07:56:48;26.95;;;12.43;;
75943;SDS011;64627;46.076;18.238;2022-11-20T07:59:36;25.42;;;11.82;;
75943;SDS011;64627;46.076;18.238;2022-11-20T08:02:20;19.83;;;9.52;;
75943;SDS011;64627;46.076;18.238;2022-11-20T08:05:11;21.48;;;10.05;;
75943;SDS011;64627;46.076;18.238;2022-11-20T08:07:55;19.83;;;9.07;;
75943;SDS011;64627;46.076;18.238;2022-11-20T08:10:53;19.65;;;8.25;;
75943;SDS011;64627;46.076;18.238;2022-11-20T08:13:59;24.95;;;10.82;;
75943;SDS011;64627;46.076;18.238;2022-11-20T08:17:09;23.60;;;9.95;;
75943;SDS011;64627;46.076;18.238;2022-11-20T08:19:57;22.70;;;9.98;;
75943;SDS011;64627;46.076;18.238;2022-11-20T08:23:02;18.95;;;9.43;;
75943;SDS011;64627;46.076;18.238;2022-11-20T08:25:51;15.07;;;7.12;;
75943;SDS011;64627;46.076;18.238;2022-11-20T08:28:35;23.27;;;9.00;;
75943;SDS011;64627;46.076;18.238;2022-11-20T08:31:29;21.30;;;8.90;;
75943;SDS011;64627;46.076;18.238;2022-11-20T08:34:27;21.83;;;10.07;;
75943;SDS011;64627;46.076;18.238;2022-11-20T08:37:11;19.55;;;9.48;;
75943;SDS011;64627;46.076;18.238;2022-11-20T08:40:09;19.10;;;9.25;;
75943;SDS011;64627;46.076;18.238;2022-11-20T08:42:54;16.87;;;7.75;;
75943;SDS011;64627;46.076;18.238;2022-11-20T08:45:45;17.27;;;8.43;;
75943;SDS011;64627;46.076;18.238;2022-11-20T08:48:29;19.85;;;9.23;;
75943;SDS011;64627;46.076;18.238;2022-11-20T08:51:27;20.77;;;8.23;;
75943;SDS011;64627;46.076;18.238;2022-11-20T08:54:17;20.45;;;9.45;;
75943;SDS011;64627;46.076;18.238;2022-11-20T08:57:03;18.73;;;8.05;;
75943;SDS011;64627;46.076;18.238;2022-11-20T08:59:48;21.87;;;9.55;;
75943;SDS011;64627;46.076;18.238;2022-11-20T09:02:39;20.00;;;9.40;;
75943;SDS011;64627;46.076;18.238;2022-11-20T09:05:29;16.15;;;7.05;;
75943;SDS011;64627;46.076;18.238;2022-11-20T09:08:20;18.77;;;7.75;;
75943;SDS011;64627;46.076;18.238;2022-11-20T09:11:24;17.12;;;7.05;;
75943;SDS011;64627;46.076;18.238;2022-11-20T09:14:09;16.15;;;8.65;;
75943;SDS011;64627;46.076;18.238;2022-11-20T09:16:57;17.42;;;7.50;;
75943;SDS011;64627;46.076;18.238;2022-11-20T09:19:41;14.30;;;6.20;;
75943;SDS011;64627;46.076;18.238;2022-11-20T09:22:31;15.60;;;7.03;;
75943;SDS011;64627;46.076;18.238;2022-11-20T09:25:21;16.52;;;7.12;;
75943;SDS011;64627;46.076;18.238;2022-11-20T09:28:12;13.00;;;6.68;;
75943;SDS011;64627;46.076;18.238;2022-11-20T09:31:15;13.75;;;5.30;;
75943;SDS011;64627;46.076;18.238;2022-11-20T09:34:17;13.65;;;7.72;;
75943;SDS011;64627;46.076;18.238;2022-11-20T09:37:01;17.08;;;7.45;;
75943;SDS011;64627;46.076;18.238;2022-11-20T09:39:50;20.75;;;9.65;;
75943;SDS011;64627;46.076;18.238;2022-11-20T09:49:04;18.65;;;8.45;;
75943;SDS011;64627;46.076;18.238;2022-11-20T09:52:22;19.70;;;9.30;;
75943;SDS011;64627;46.076;18.238;2022-11-20T09:55:15;19.70;;;9.63;;
75943;SDS011;64627;46.076;18.238;2022-11-20T09:58:07;20.08;;;9.13;;
75943;SDS011;64627;46.076;18.238;2022-11-20T10:00:56;21.95;;;11.07;;
75943;SDS011;64627;46.076;18.238;2022-11-20T10:07:03;19.00;;;7.87;;
75943;SDS011;64627;46.076;18.238;2022-11-20T10:10:14;19.73;;;8.32;;
75943;SDS011;64627;46.076;18.238;2022-11-20T10:22:43;18.58;;;8.63;;
75943;SDS011;64627;46.076;18.238;2022-11-20T10:26:21;20.45;;;9.43;;
75943;SDS011;64627;46.076;18.238;2022-11-20T10:31:59;21.50;;;9.30;;
75943;SDS011;64627;46.076;18.238;2022-11-20T10:34:49;20.15;;;9.10;;
75943;SDS011;64627;46.076;18.238;2022-11-20T10:37:36;23.25;;;10.65;;
75943;SDS011;64627;46.076;18.238;2022-11-20T10:40:23;23.45;;;10.02;;
75943;SDS011;64627;46.076;18.238;2022-11-20T10:43:19;27.52;;;11.65;;
75943;SDS011;64627;46.076;18.238;2022-11-20T10:46:21;30.73;;;12.37;;
75943;SDS011;64627;46.076;18.238;2022-11-20T10:49:13;26.67;;;11.02;;
75943;SDS011;64627;46.076;18.238;2022-11-20T11:02:00;24.05;;;11.18;;
75943;SDS011;64627;46.076;18.238;2022-11-20T11:04:51;18.30;;;8.75;;
75943;SDS011;64627;46.076;18.238;2022-11-20T11:07:43;21.62;;;9.27;;
75943;SDS011;64627;46.076;18.238;2022-11-20T11:13:41;17.00;;;8.95;;
75943;SDS011;64627;46.076;18.238;2022-11-20T11:16:25;20.42;;;9.27;;
75943;SDS011;64627;46.076;18.238;2022-11-20T11:19:16;17.50;;;9.18;;
75943;SDS011;64627;46.076;18.238;2022-11-20T11:22:00;19.83;;;10.13;;
75943;SDS011;64627;46.076;18.238;2022-11-20T11:24:58;27.02;;;11.20;;
75943;SDS011;64627;46.076;18.238;2022-11-20T11:27:46;17.08;;;8.18;;
75943;SDS011;64627;46.076;18.238;2022-11-20T11:30:45;16.85;;;9.38;;
75943;SDS011;64627;46.076;18.238;2022-11-20T11:33:32;16.73;;;7.90;;
75943;SDS011;64627;46.076;18.238;2022-11-20T11:36:28;20.92;;;9.45;;
75943;SDS011;64627;46.076;18.238;2022-11-20T11:39:14;18.00;;;8.18;;
75943;SDS011;64627;46.076;18.238;2022-11-20T11:42:16;18.10;;;7.90;;
75943;SDS011;64627;46.076;18.238;2022-11-20T11:45:01;14.02;;;7.40;;
75943;SDS011;64627;46.076;18.238;2022-11-20T11:47:50;18.77;;;8.10;;
75943;SDS011;64627;46.076;18.238;2022-11-20T11:50:36;15.57;;;8.45;;
75943;SDS011;64627;46.076;18.238;2022-11-20T11:53:21;17.90;;;8.10;;
75943;SDS011;64627;46.076;18.238;2022-11-20T11:56:13;17.30;;;8.00;;
75943;SDS011;64627;46.076;18.238;2022-11-20T11:59:06;19.23;;;9.57;;
75943;SDS011;64627;46.076;18.238;2022-11-20T12:02:15;18.73;;;9.13;;
75943;SDS011;64627;46.076;18.238;2022-11-20T12:05:26;13.93;;;6.55;;
75943;SDS011;64627;46.076;18.238;2022-11-20T12:11:37;16.20;;;7.50;;
75943;SDS011;64627;46.076;18.238;2022-11-20T12:14:36;21.12;;;10.70;;
75943;SDS011;64627;46.076;18.238;2022-11-20T12:17:22;20.88;;;11.57;;
75943;SDS011;64627;46.076;18.238;2022-11-20T12:20:15;22.80;;;12.80;;
75943;SDS011;64627;46.076;18.238;2022-11-20T13:00:19;19.02;;;9.20;;
75943;SDS011;64627;46.076;18.238;2022-11-20T13:06:22;24.40;;;9.45;;
75943;SDS011;64627;46.076;18.238;2022-11-20T13:09:13;20.92;;;10.13;;
75943;SDS011;64627;46.076;18.238;2022-11-20T13:12:10;21.12;;;9.23;;
75943;SDS011;64627;46.076;18.238;2022-11-20T13:18:21;23.02;;;9.85;;
75943;SDS011;64627;46.076;18.238;2022-11-20T13:21:17;24.10;;;10.35;;
75943;SDS011;64627;46.076;18.238;2022-11-20T13:24:03;22.75;;;10.05;;
75943;SDS011;64627;46.076;18.238;2022-11-20T13:30:21;19.10;;;8.88;;
75943;SDS011;64627;46.076;18.238;2022-11-20T13:33:32;21.00;;;9.75;;
75943;SDS011;64627;46.076;18.238;2022-11-20T13:36:25;24.33;;;10.77;;
75943;SDS011;64627;46.076;18.238;2022-11-20T13:39:10;22.00;;;10.27;;
75943;SDS011;64627;46.076;18.238;2022-11-20T13:45:02;28.00;;;13.62;;
75943;SDS011;64627;46.076;18.238;2022-11-20T13:48:15;32.97;;;14.13;;
75943;SDS011;64627;46.076;18.238;2022-11-20T14:00:28;34.10;;;14.98;;
75943;SDS011;64627;46.076;18.238;2022-11-20T14:03:23;32.97;;;15.13;;
75943;SDS011;64627;46.076;18.238;2022-11-20T14:06:31;34.03;;;14.55;;
75943;SDS011;64627;46.076;18.238;2022-11-20T14:09:27;31.95;;;15.32;;
75943;SDS011;64627;46.076;18.238;2022-11-20T14:12:20;28.00;;;13.40;;
75943;SDS011;64627;46.076;18.238;2022-11-20T14:15:23;34.63;;;15.93;;
75943;SDS011;64627;46.076;18.238;2022-11-20T14:18:19;31.37;;;16.27;;
75943;SDS011;64627;46.076;18.238;2022-11-20T14:21:07;32.83;;;15.25;;
75943;SDS011;64627;46.076;18.238;2022-11-20T14:24:03;33.30;;;14.07;;
75943;SDS011;64627;46.076;18.238;2022-11-20T14:27:18;32.25;;;14.20;;
75943;SDS011;64627;46.076;18.238;2022-11-20T14:30:24;28.40;;;13.80;;
75943;SDS011;64627;46.076;18.238;2022-11-20T14:33:22;31.95;;;15.00;;
75943;SDS011;64627;46.076;18.238;2022-11-20T14:36:15;32.35;;;15.70;;
75943;SDS011;64627;46.076;18.238;2022-11-20T14:39:21;36.70;;;18.35;;
75943;SDS011;64627;46.076;18.238;2022-11-20T14:42:22;30.37;;;14.05;;
75943;SDS011;64627;46.076;18.238;2022-11-20T14:45:15;27.83;;;13.50;;
75943;SDS011;64627;46.076;18.238;2022-11-20T14:47:59;24.05;;;11.23;;
75943;SDS011;64627;46.076;18.238;2022-11-20T14:50:56;25.45;;;12.43;;
75943;SDS011;64627;46.076;18.238;2022-11-20T14:53:46;23.98;;;11.70;;
75943;SDS011;64627;46.076;18.238;2022-11-20T14:56:54;30.27;;;13.07;;
75943;SDS011;64627;46.076;18.238;2022-11-20T14:59:48;27.70;;;12.63;;
75943;SDS011;64627;46.076;18.238;2022-11-20T15:02:50;25.92;;;13.32;;
75943;SDS011;64627;46.076;18.238;2022-11-20T15:05:45;28.33;;;12.50;;
75943;SDS011;64627;46.076;18.238;2022-11-20T15:08:30;34.50;;;14.43;;
75943;SDS011;64627;46.076;18.238;2022-11-20T15:11:16;25.37;;;11.73;;
75943;SDS011;64627;46.076;18.238;2022-11-20T15:14:03;27.98;;;12.18;;
75943;SDS011;64627;46.076;18.238;2022-11-20T15:16:49;34.47;;;13.43;;
75943;SDS011;64627;46.076;18.238;2022-11-20T15:19:45;32.60;;;14.55;;
75943;SDS011;64627;46.076;18.238;2022-11-20T15:22:36;33.80;;;15.23;;
75943;SDS011;64627;46.076;18.238;2022-11-20T15:25:26;32.83;;;14.50;;
75943;SDS011;64627;46.076;18.238;2022-11-20T15:31:13;46.08;;;22.73;;
75943;SDS011;64627;46.076;18.238;2022-11-20T15:34:13;38.10;;;15.65;;
75943;SDS011;64627;46.076;18.238;2022-11-20T15:36:58;32.85;;;14.80;;
75943;SDS011;64627;46.076;18.238;2022-11-20T15:39:42;34.55;;;16.00;;
75943;SDS011;64627;46.076;18.238;2022-11-20T15:42:27;38.92;;;17.10;;
75943;SDS011;64627;46.076;18.238;2022-11-20T15:45:17;38.47;;;16.37;;
75943;SDS011;64627;46.076;18.238;2022-11-20T15:48:01;38.58;;;15.80;;
75943;SDS011;64627;46.076;18.238;2022-11-20T15:53:38;36.03;;;15.35;;
75943;SDS011;64627;46.076;18.238;2022-11-20T15:56:23;38.70;;;16.75;;
75943;SDS011;64627;46.076;18.238;2022-11-20T15:59:07;41.17;;;18.02;;
75943;SDS011;64627;46.076;18.238;2022-11-20T16:01:58;36.95;;;16.33;;
75943;SDS011;64627;46.076;18.238;2022-11-20T16:04:42;39.55;;;16.87;;
75943;SDS011;64627;46.076;18.238;2022-11-20T16:07:26;40.42;;;16.67;;
75943;SDS011;64627;46.076;18.238;2022-11-20T16:10:17;40.25;;;16.90;;
75943;SDS011;64627;46.076;18.238;2022-11-20T16:13:02;34.00;;;15.45;;
75943;SDS011;64627;46.076;18.238;2022-11-20T16:16:07;39.15;;;16.80;;
75943;SDS011;64627;46.076;18.238;2022-11-20T16:18:53;50.12;;;19.30;;
75943;SDS011;64627;46.076;18.238;2022-11-20T16:21:38;39.05;;;17.90;;
75943;SDS011;64627;46.076;18.238;2022-11-20T16:24:24;45.47;;;18.65;;
75943;SDS011;64627;46.076;18.238;2022-11-20T16:27:08;42.80;;;19.73;;
75943;SDS011;64627;46.076;18.238;2022-11-20T16:29:54;48.70;;;22.67;;
75943;SDS011;64627;46.076;18.238;2022-11-20T16:32:44;52.05;;;23.70;;
75943;SDS011;64627;46.076;18.238;2022-11-20T16:35:29;54.92;;;23.70;;
75943;SDS011;64627;46.076;18.238;2022-11-20T16:38:14;56.22;;;24.35;;
75943;SDS011;64627;46.076;18.238;2022-11-20T16:41:04;50.20;;;22.15;;
75943;SDS011;64627;46.076;18.238;2022-11-20T16:43:50;59.95;;;25.20;;
75943;SDS011;64627;46.076;18.238;2022-11-20T16:46:37;52.85;;;23.50;;
75943;SDS011;64627;46.076;18.238;2022-11-20T16:49:29;37.50;;;16.42;;
75943;SDS011;64627;46.076;18.238;2022-11-20T16:52:13;38.38;;;17.08;;
75943;SDS011;64627;46.076;18.238;2022-11-20T16:54:57;38.92;;;16.45;;
75943;SDS011;64627;46.076;18.238;2022-11-20T16:57:41;41.80;;;18.70;;
75943;SDS011;64627;46.076;18.238;2022-11-20T17:00:38;54.63;;;20.95;;
75943;SDS011;64627;46.076;18.238;2022-11-20T17:03:23;49.70;;;21.75;;
75943;SDS011;64627;46.076;18.238;2022-11-20T17:06:18;45.28;;;21.00;;
75943;SDS011;64627;46.076;18.238;2022-11-20T17:09:03;47.15;;;20.30;;
75943;SDS011;64627;46.076;18.238;2022-11-20T17:11:54;53.20;;;22.27;;
75943;SDS011;64627;46.076;18.238;2022-11-20T17:14:38;42.62;;;18.12;;
75943;SDS011;64627;46.076;18.238;2022-11-20T17:17:29;51.50;;;19.30;;
75943;SDS011;64627;46.076;18.238;2022-11-20T17:20:20;42.03;;;19.12;;
75943;SDS011;64627;46.076;18.238;2022-11-20T17:23:11;60.25;;;24.17;;
75943;SDS011;64627;46.076;18.238;2022-11-20T17:26:06;46.37;;;19.55;;
75943;SDS011;64627;46.076;18.238;2022-11-20T17:29:07;53.10;;;21.52;;
75943;SDS011;64627;46.076;18.238;2022-11-20T17:31:55;51.78;;;20.25;;
75943;SDS011;64627;46.076;18.238;2022-11-20T17:34:39;49.10;;;19.92;;
75943;SDS011;64627;46.076;18.238;2022-11-20T17:37:24;47.35;;;18.73;;
75943;SDS011;64627;46.076;18.238;2022-11-20T17:40:21;40.58;;;17.85;;
75943;SDS011;64627;46.076;18.238;2022-11-20T17:43:19;45.83;;;19.17;;
75943;SDS011;64627;46.076;18.238;2022-11-20T17:46:07;39.92;;;17.45;;
75943;SDS011;64627;46.076;18.238;2022-11-20T17:49:01;43.87;;;17.65;;
75943;SDS011;64627;46.076;18.238;2022-11-20T17:51:51;39.63;;;16.20;;
75943;SDS011;64627;46.076;18.238;2022-11-20T17:54:49;36.22;;;16.20;;
75943;SDS011;64627;46.076;18.238;2022-11-20T17:57:38;40.63;;;17.08;;
75943;SDS011;64627;46.076;18.238;2022-11-20T18:00:45;43.72;;;17.62;;
75943;SDS011;64627;46.076;18.238;2022-11-20T18:03:35;40.58;;;16.15;;
75943;SDS011;64627;46.076;18.238;2022-11-20T18:06:21;44.58;;;18.08;;
75943;SDS011;64627;46.076;18.238;2022-11-20T18:09:12;39.47;;;16.90;;
75943;SDS011;64627;46.076;18.238;2022-11-20T18:11:56;37.78;;;15.23;;
75943;SDS011;64627;46.076;18.238;2022-11-20T18:14:47;37.60;;;14.98;;
75943;SDS011;64627;46.076;18.238;2022-11-20T18:17:31;35.03;;;14.68;;
75943;SDS011;64627;46.076;18.238;2022-11-20T18:20:15;36.13;;;15.02;;
75943;SDS011;64627;46.076;18.238;2022-11-20T18:22:59;34.08;;;14.48;;
75943;SDS011;64627;46.076;18.238;2022-11-20T18:26:01;36.60;;;14.95;;
75943;SDS011;64627;46.076;18.238;2022-11-20T18:28:51;42.85;;;17.45;;
75943;SDS011;64627;46.076;18.238;2022-11-20T18:31:36;36.90;;;16.30;;
75943;SDS011;64627;46.076;18.238;2022-11-20T18:34:26;39.75;;;17.48;;
75943;SDS011;64627;46.076;18.238;2022-11-20T18:37:11;37.80;;;16.15;;
75943;SDS011;64627;46.076;18.238;2022-11-20T18:40:01;38.38;;;14.60;;
75943;SDS011;64627;46.076;18.238;2022-11-20T18:42:46;32.42;;;13.93;;
75943;SDS011;64627;46.076;18.238;2022-11-20T18:45:49;38.70;;;15.63;;
75943;SDS011;64627;46.076;18.238;2022-11-20T18:48:35;35.83;;;15.30;;
75943;SDS011;64627;46.076;18.238;2022-11-20T18:51:19;39.13;;;17.70;;
75943;SDS011;64627;46.076;18.238;2022-11-20T18:54:03;37.28;;;15.43;;
75943;SDS011;64627;46.076;18.238;2022-11-20T18:56:47;35.75;;;15.20;;
75943;SDS011;64627;46.076;18.238;2022-11-20T18:59:31;38.03;;;15.95;;
75943;SDS011;64627;46.076;18.238;2022-11-20T19:02:16;36.67;;;15.45;;
75943;SDS011;64627;46.076;18.238;2022-11-20T19:05:08;30.20;;;13.98;;
75943;SDS011;64627;46.076;18.238;2022-11-20T19:07:56;33.15;;;14.20;;
75943;SDS011;64627;46.076;18.238;2022-11-20T19:10:40;33.30;;;14.38;;
75943;SDS011;64627;46.076;18.238;2022-11-20T19:13:31;33.85;;;13.90;;
75943;SDS011;64627;46.076;18.238;2022-11-20T19:16:17;30.52;;;13.80;;
75943;SDS011;64627;46.076;18.238;2022-11-20T19:19:03;34.10;;;15.68;;
75943;SDS011;64627;46.076;18.238;2022-11-20T19:21:47;37.38;;;16.15;;
75943;SDS011;64627;46.076;18.238;2022-11-20T19:24:31;38.90;;;16.15;;
75943;SDS011;64627;46.076;18.238;2022-11-20T19:27:15;38.17;;;15.10;;
75943;SDS011;64627;46.076;18.238;2022-11-20T19:30:03;44.60;;;17.98;;
75943;SDS011;64627;46.076;18.238;2022-11-20T19:32:48;41.95;;;18.73;;
75943;SDS011;64627;46.076;18.238;2022-11-20T19:35:32;38.38;;;17.25;;
75943;SDS011;64627;46.076;18.238;2022-11-20T19:38:16;41.17;;;17.00;;
75943;SDS011;64627;46.076;18.238;2022-11-20T19:41:08;35.05;;;15.77;;
75943;SDS011;64627;46.076;18.238;2022-11-20T19:44:05;43.75;;;15.82;;
75943;SDS011;64627;46.076;18.238;2022-11-20T19:47:09;38.75;;;15.57;;
75943;SDS011;64627;46.076;18.238;2022-11-20T19:49:59;36.22;;;15.50;;
75943;SDS011;64627;46.076;18.238;2022-11-20T19:52:43;32.83;;;14.65;;
75943;SDS011;64627;46.076;18.238;2022-11-20T19:55:34;36.05;;;15.43;;
75943;SDS011;64627;46.076;18.238;2022-11-20T19:58:18;34.10;;;15.75;;
75943;SDS011;64627;46.076;18.238;2022-11-20T20:01:06;39.85;;;16.25;;
75943;SDS011;64627;46.076;18.238;2022-11-20T20:03:54;39.08;;;15.68;;
75943;SDS011;64627;46.076;18.238;2022-11-20T20:06:40;40.20;;;16.17;;
75943;SDS011;64627;46.076;18.238;2022-11-20T20:09:24;29.80;;;13.35;;
75943;SDS011;64627;46.076;18.238;2022-11-20T20:12:09;32.58;;;13.05;;
75943;SDS011;64627;46.076;18.238;2022-11-20T20:15:00;36.67;;;14.00;;
75943;SDS011;64627;46.076;18.238;2022-11-20T20:17:45;38.90;;;14.15;;
75943;SDS011;64627;46.076;18.238;2022-11-20T20:20:29;41.03;;;15.38;;
75943;SDS011;64627;46.076;18.238;2022-11-20T20:23:13;36.08;;;14.68;;
75943;SDS011;64627;46.076;18.238;2022-11-20T20:25:57;36.17;;;15.43;;
75943;SDS011;64627;46.076;18.238;2022-11-20T20:28:49;37.72;;;14.35;;
75943;SDS011;64627;46.076;18.238;2022-11-20T20:31:34;33.35;;;14.55;;
75943;SDS011;64627;46.076;18.238;2022-11-20T20:34:18;36.20;;;14.68;;
75943;SDS011;64627;46.076;18.238;2022-11-20T20:37:02;36.35;;;14.43;;
75943;SDS011;64627;46.076;18.238;2022-11-20T20:40:00;36.13;;;15.23;;
75943;SDS011;64627;46.076;18.238;2022-11-20T20:42:43;39.63;;;15.27;;
75943;SDS011;64627;46.076;18.238;2022-11-20T20:45:45;41.15;;;15.75;;
75943;SDS011;64627;46.076;18.238;2022-11-20T20:48:31;41.70;;;16.35;;
75943;SDS011;64627;46.076;18.238;2022-11-20T20:51:15;37.80;;;16.10;;
75943;SDS011;64627;46.076;18.238;2022-11-20T20:53:59;36.47;;;14.07;;
75943;SDS011;64627;46.076;18.238;2022-11-20T20:56:56;34.45;;;14.55;;
75943;SDS011;64627;46.076;18.238;2022-11-20T20:59:44;50.83;;;15.48;;
75943;SDS011;64627;46.076;18.238;2022-11-20T21:02:28;37.15;;;15.23;;
75943;SDS011;64627;46.076;18.238;2022-11-20T21:05:18;41.22;;;16.15;;
75943;SDS011;64627;46.076;18.238;2022-11-20T21:08:08;42.13;;;16.33;;
75943;SDS011;64627;46.076;18.238;2022-11-20T21:11:06;40.67;;;16.95;;
75943;SDS011;64627;46.076;18.238;2022-11-20T21:13:57;41.03;;;16.05;;
75943;SDS011;64627;46.076;18.238;2022-11-20T21:16:41;39.67;;;14.73;;
75943;SDS011;64627;46.076;18.238;2022-11-20T21:19:26;40.65;;;14.45;;
75943;SDS011;64627;46.076;18.238;2022-11-20T21:22:10;36.58;;;15.45;;
75943;SDS011;64627;46.076;18.238;2022-11-20T21:24:54;38.17;;;15.05;;
75943;SDS011;64627;46.076;18.238;2022-11-20T21:27:38;39.40;;;15.55;;
75943;SDS011;64627;46.076;18.238;2022-11-20T21:30:22;38.50;;;16.37;;
75943;SDS011;64627;46.076;18.238;2022-11-20T21:33:06;45.95;;;16.40;;
75943;SDS011;64627;46.076;18.238;2022-11-20T21:35:57;49.05;;;17.83;;
75943;SDS011;64627;46.076;18.238;2022-11-20T21:38:43;44.72;;;16.33;;
75943;SDS011;64627;46.076;18.238;2022-11-20T21:41:28;42.03;;;15.75;;
75943;SDS011;64627;46.076;18.238;2022-11-20T21:44:19;44.50;;;17.35;;
75943;SDS011;64627;46.076;18.238;2022-11-20T21:47:03;47.80;;;18.35;;
75943;SDS011;64627;46.076;18.238;2022-11-20T21:49:55;43.78;;;16.37;;
75943;SDS011;64627;46.076;18.238;2022-11-20T21:52:53;41.17;;;16.65;;
75943;SDS011;64627;46.076;18.238;2022-11-20T21:55:37;47.30;;;16.30;;
75943;SDS011;64627;46.076;18.238;2022-11-20T21:58:27;43.15;;;16.42;;
75943;SDS011;64627;46.076;18.238;2022-11-20T22:04:00;43.35;;;18.12;;
75943;SDS011;64627;46.076;18.238;2022-11-20T22:06:45;49.33;;;18.20;;
75943;SDS011;64627;46.076;18.238;2022-11-20T22:09:29;49.20;;;18.12;;
75943;SDS011;64627;46.076;18.238;2022-11-20T22:12:13;48.00;;;18.73;;
75943;SDS011;64627;46.076;18.238;2022-11-20T22:14:57;49.63;;;18.48;;
75943;SDS011;64627;46.076;18.238;2022-11-20T22:17:41;50.97;;;18.77;;
75943;SDS011;64627;46.076;18.238;2022-11-20T22:21:01;49.97;;;16.65;;
75943;SDS011;64627;46.076;18.238;2022-11-20T22:23:46;50.38;;;19.12;;
75943;SDS011;64627;46.076;18.238;2022-11-20T22:26:37;45.58;;;17.52;;
75943;SDS011;64627;46.076;18.238;2022-11-20T22:29:21;47.80;;;18.60;;
75943;SDS011;64627;46.076;18.238;2022-11-20T22:32:05;45.55;;;17.35;;
75943;SDS011;64627;46.076;18.238;2022-11-20T22:34:49;43.50;;;17.23;;
75943;SDS011;64627;46.076;18.238;2022-11-20T22:37:33;43.47;;;16.23;;
75943;SDS011;64627;46.076;18.238;2022-11-20T22:40:31;47.50;;;17.90;;
75943;SDS011;64627;46.076;18.238;2022-11-20T22:43:22;43.10;;;15.95;;
75943;SDS011;64627;46.076;18.238;2022-11-20T22:46:16;39.17;;;15.05;;
75943;SDS011;64627;46.076;18.238;2022-11-20T22:49:02;41.78;;;15.05;;
75943;SDS011;64627;46.076;18.238;2022-11-20T22:51:48;38.08;;;14.15;;
75943;SDS011;64627;46.076;18.238;2022-11-20T22:54:32;37.70;;;15.80;;
75943;SDS011;64627;46.076;18.238;2022-11-20T22:57:16;35.95;;;13.10;;
75943;SDS011;64627;46.076;18.238;2022-11-20T23:00:07;36.58;;;13.80;;
75943;SDS011;64627;46.076;18.238;2022-11-20T23:02:57;36.53;;;13.98;;
75943;SDS011;64627;46.076;18.238;2022-11-20T23:05:41;38.50;;;13.88;;
75943;SDS011;64627;46.076;18.238;2022-11-20T23:08:32;39.97;;;15.10;;
75943;SDS011;64627;46.076;18.238;2022-11-20T23:11:20;42.25;;;15.90;;
75943;SDS011;64627;46.076;18.238;2022-11-20T23:14:11;38.30;;;14.80;;
75943;SDS011;64627;46.076;18.238;2022-11-20T23:16:56;42.70;;;16.35;;
75943;SDS011;64627;46.076;18.238;2022-11-20T23:19:40;37.03;;;14.68;;
75943;SDS011;64627;46.076;18.238;2022-11-20T23:22:24;41.03;;;15.15;;
75943;SDS011;64627;46.076;18.238;2022-11-20T23:25:08;33.30;;;14.25;;
75943;SDS011;64627;46.076;18.238;2022-11-20T23:27:52;38.67;;;14.75;;
75943;SDS011;64627;46.076;18.238;2022-11-20T23:30:37;37.85;;;14.75;;
75943;SDS011;64627;46.076;18.238;2022-11-20T23:33:27;37.53;;;15.02;;
75943;SDS011;64627;46.076;18.238;2022-11-20T23:36:18;39.65;;;15.43;;
75943;SDS011;64627;46.076;18.238;2022-11-20T23:39:16;40.60;;;15.25;;
75943;SDS011;64627;46.076;18.238;2022-11-20T23:42:00;35.70;;;14.63;;
75943;SDS011;64627;46.076;18.238;2022-11-20T23:44:45;41.80;;;15.32;;
75943;SDS011;64627;46.076;18.238;2022-11-20T23:47:29;32.75;;;13.23;;
75943;SDS011;64627;46.076;18.238;2022-11-20T23:50:19;35.35;;;14.73;;
75943;SDS011;64627;46.076;18.238;2022-11-20T23:53:03;31.98;;;13.68;;
75943;SDS011;64627;46.076;18.238;2022-11-20T23:56:02;38.83;;;14.27;;
75943;SDS011;64627;46.076;18.238;2022-11-20T23:58:47;42.15;;;14.75;;
